AAL2412 KMIA-KMSY
Flight info
| Callsign | AAL2412 |
|---|---|
| Flight time | 1h 46m |
| Altitude | 36000 |
| Route | GLADZ4 BAGGS REMIS Y280 REDFN HRV |
| Aircraft | B738/M-SDE2E3FGHIRWXY/LB1 |
Departure
| Time | 2026-04-30 21:08 |
|---|---|
| Airport | Miami International Airport (KMIA) |
Arrival
| Time | 2026-04-30 22:54 |
|---|---|
| Airport | Louis Armstrong New Orleans International Airport (KMSY) |
| Time | Latitude | Longitude | Altitude | Speed | Heading |
|---|---|---|---|---|---|
| 2026-04-30 20:24 | 25.79794 | -80.27719 | 14 ft | 0 kts | 177° |
| 2026-04-30 20:58 | 25.79817 | -80.27720 | 14 ft | 4 kts | 181° |
| 2026-04-30 20:58 | 25.79843 | -80.27718 | 14 ft | 4 kts | 188° |
| 2026-04-30 20:58 | 25.79869 | -80.27711 | 15 ft | 4 kts | 204° |
| 2026-04-30 20:58 | 25.79889 | -80.27695 | 17 ft | 4 kts | 249° |
| 2026-04-30 20:59 | 25.79883 | -80.27736 | 16 ft | 4 kts | 274° |
| 2026-04-30 20:59 | 25.79898 | -80.27754 | 16 ft | 4 kts | 334° |
| 2026-04-30 21:00 | 25.79916 | -80.27756 | 14 ft | 0 kts | 357° |
| 2026-04-30 21:02 | 25.79919 | -80.27756 | 14 ft | 2 kts | 357° |
| 2026-04-30 21:02 | 25.79944 | -80.27758 | 14 ft | 6 kts | 354° |
| 2026-04-30 21:02 | 25.79972 | -80.27801 | 14 ft | 9 kts | 277° |
| 2026-04-30 21:03 | 25.79992 | -80.27884 | 14 ft | 13 kts | 311° |
| 2026-04-30 21:03 | 25.80052 | -80.27972 | 15 ft | 17 kts | 269° |
| 2026-04-30 21:03 | 25.80046 | -80.28113 | 13 ft | 20 kts | 266° |
| 2026-04-30 21:03 | 25.80038 | -80.28274 | 14 ft | 22 kts | 267° |
| 2026-04-30 21:04 | 25.80030 | -80.28456 | 14 ft | 25 kts | 268° |
| 2026-04-30 21:04 | 25.80024 | -80.28656 | 15 ft | 26 kts | 266° |
| 2026-04-30 21:04 | 25.80004 | -80.29090 | 15 ft | 29 kts | 267° |
| 2026-04-30 21:05 | 25.79995 | -80.29295 | 15 ft | 28 kts | 267° |
| 2026-04-30 21:05 | 25.79987 | -80.29501 | 13 ft | 26 kts | 267° |
| 2026-04-30 21:05 | 25.79979 | -80.29695 | 13 ft | 24 kts | 267° |
| 2026-04-30 21:05 | 25.79972 | -80.29874 | 13 ft | 23 kts | 267° |
| 2026-04-30 21:06 | 25.79994 | -80.30039 | 14 ft | 18 kts | 289° |
| 2026-04-30 21:06 | 25.80063 | -80.30131 | 13 ft | 17 kts | 11° |
| 2026-04-30 21:06 | 25.80078 | -80.30022 | 14 ft | 16 kts | 96° |
| 2026-04-30 21:06 | 25.80079 | -80.29981 | 13 ft | 1 kts | 87° |
| 2026-04-30 21:07 | 25.80080 | -80.29966 | 12 ft | 3 kts | 87° |
| 2026-04-30 21:07 | 25.80082 | -80.29912 | 12 ft | 17 kts | 87° |
| 2026-04-30 21:07 | 25.80098 | -80.29503 | 13 ft | 90 kts | 88° |
| 2026-04-30 21:07 | 25.80141 | -80.28562 | 18 ft | 151 kts | 90° |
| 2026-04-30 21:08 | 25.80174 | -80.27248 | 325 ft | 184 kts | 90° |
| 2026-04-30 21:08 | 25.80273 | -80.25729 | 857 ft | 208 kts | 88° |
| 2026-04-30 21:08 | 25.80464 | -80.24088 | 1359 ft | 220 kts | 86° |
| 2026-04-30 21:08 | 25.80636 | -80.22377 | 2006 ft | 224 kts | 86° |
| 2026-04-30 21:09 | 25.80780 | -80.20640 | 2566 ft | 232 kts | 87° |
| 2026-04-30 21:09 | 25.81033 | -80.18819 | 3089 ft | 246 kts | 77° |
| 2026-04-30 21:09 | 25.81599 | -80.16934 | 3282 ft | 277 kts | 63° |
| 2026-04-30 21:09 | 25.82749 | -80.15181 | 3615 ft | 275 kts | 41° |
| 2026-04-30 21:10 | 25.84344 | -80.14107 | 3722 ft | 265 kts | 13° |
| 2026-04-30 21:10 | 25.86064 | -80.13982 | 4275 ft | 232 kts | 345° |
| 2026-04-30 21:10 | 25.87549 | -80.14507 | 4793 ft | 221 kts | 335° |
| 2026-04-30 21:10 | 25.89028 | -80.15054 | 4778 ft | 229 kts | 350° |
| 2026-04-30 21:11 | 25.90576 | -80.15322 | 4788 ft | 222 kts | 333° |
| 2026-04-30 21:11 | 25.91917 | -80.16192 | 4886 ft | 232 kts | 330° |
| 2026-04-30 21:11 | 25.93441 | -80.16959 | 5066 ft | 255 kts | 335° |
| 2026-04-30 21:11 | 25.95179 | -80.17669 | 5474 ft | 269 kts | 338° |
| 2026-04-30 21:12 | 25.96927 | -80.18378 | 6136 ft | 271 kts | 329° |
| 2026-04-30 21:12 | 25.98348 | -80.19710 | 6739 ft | 272 kts | 304° |
| 2026-04-30 21:12 | 25.99146 | -80.21600 | 7449 ft | 270 kts | 283° |
| 2026-04-30 21:12 | 25.99439 | -80.23666 | 8159 ft | 272 kts | 277° |
| 2026-04-30 21:13 | 25.99664 | -80.25765 | 8879 ft | 275 kts | 277° |
| 2026-04-30 21:13 | 25.99842 | -80.27884 | 9691 ft | 276 kts | 273° |
| 2026-04-30 21:13 | 25.99842 | -80.30029 | 10409 ft | 284 kts | 270° |
| 2026-04-30 21:13 | 25.99805 | -80.32330 | 10599 ft | 309 kts | 270° |
| 2026-04-30 21:14 | 25.99780 | -80.34797 | 10771 ft | 330 kts | 271° |
| 2026-04-30 21:14 | 25.99768 | -80.37428 | 10921 ft | 350 kts | 271° |
| 2026-04-30 21:14 | 25.99758 | -80.40203 | 11046 ft | 367 kts | 269° |
| 2026-04-30 21:14 | 25.99277 | -80.43003 | 11343 ft | 379 kts | 250° |
| 2026-04-30 21:15 | 25.97967 | -80.45552 | 11890 ft | 385 kts | 235° |
| 2026-04-30 21:15 | 25.96307 | -80.47899 | 12462 ft | 387 kts | 234° |
| 2026-04-30 21:15 | 25.94609 | -80.50245 | 12990 ft | 390 kts | 233° |
| 2026-04-30 21:15 | 25.92927 | -80.52618 | 13464 ft | 393 kts | 237° |
| 2026-04-30 21:16 | 25.91680 | -80.55313 | 13952 ft | 393 kts | 253° |
| 2026-04-30 21:16 | 25.91117 | -80.58269 | 14501 ft | 391 kts | 265° |
| 2026-04-30 21:16 | 25.91046 | -80.61288 | 15014 ft | 392 kts | 271° |
| 2026-04-30 21:16 | 25.91036 | -80.64328 | 15517 ft | 395 kts | 271° |
| 2026-04-30 21:17 | 25.91018 | -80.67353 | 15998 ft | 398 kts | 271° |
| 2026-04-30 21:17 | 25.90991 | -80.70438 | 16493 ft | 400 kts | 271° |
| 2026-04-30 21:17 | 25.90957 | -80.73529 | 16994 ft | 402 kts | 271° |
| 2026-04-30 21:17 | 25.90917 | -80.76652 | 17475 ft | 405 kts | 271° |
| 2026-04-30 21:18 | 25.90874 | -80.79789 | 17946 ft | 407 kts | 271° |
| 2026-04-30 21:18 | 25.90828 | -80.82938 | 18380 ft | 410 kts | 271° |
| 2026-04-30 21:18 | 25.90781 | -80.86109 | 18739 ft | 412 kts | 271° |
| 2026-04-30 21:18 | 25.90734 | -80.89304 | 19083 ft | 415 kts | 272° |
| 2026-04-30 21:19 | 25.90955 | -80.92490 | 19472 ft | 414 kts | 283° |
| 2026-04-30 21:19 | 25.91719 | -80.95575 | 19880 ft | 413 kts | 291° |
| 2026-04-30 21:19 | 25.92882 | -80.98481 | 20204 ft | 415 kts | 299° |
| 2026-04-30 21:19 | 25.94186 | -81.01155 | 20499 ft | 417 kts | 299° |
| 2026-04-30 21:20 | 25.95579 | -81.04001 | 20808 ft | 420 kts | 299° |
| 2026-04-30 21:20 | 25.96976 | -81.06864 | 21126 ft | 423 kts | 299° |
| 2026-04-30 21:20 | 25.98375 | -81.09748 | 21433 ft | 425 kts | 299° |
| 2026-04-30 21:20 | 25.99775 | -81.12650 | 21795 ft | 426 kts | 298° |
| 2026-04-30 21:21 | 26.01166 | -81.15543 | 22119 ft | 427 kts | 298° |
| 2026-04-30 21:21 | 26.02567 | -81.18467 | 22374 ft | 430 kts | 298° |
| 2026-04-30 21:21 | 26.05394 | -81.24382 | 22880 ft | 435 kts | 298° |
| 2026-04-30 21:22 | 26.06813 | -81.27356 | 23137 ft | 437 kts | 298° |
| 2026-04-30 21:22 | 26.11080 | -81.36308 | 23853 ft | 441 kts | 298° |
| 2026-04-30 21:23 | 26.12514 | -81.39321 | 24039 ft | 442 kts | 298° |
| 2026-04-30 21:23 | 26.13959 | -81.42358 | 24238 ft | 444 kts | 298° |
| 2026-04-30 21:23 | 26.16852 | -81.48447 | 24631 ft | 447 kts | 298° |
| 2026-04-30 21:24 | 26.18303 | -81.51504 | 24821 ft | 448 kts | 298° |
| 2026-04-30 21:24 | 26.19758 | -81.54570 | 25010 ft | 450 kts | 298° |
| 2026-04-30 21:24 | 26.21221 | -81.57655 | 25187 ft | 451 kts | 298° |
| 2026-04-30 21:24 | 26.22688 | -81.60752 | 25370 ft | 452 kts | 298° |
| 2026-04-30 21:25 | 26.25629 | -81.66966 | 25733 ft | 455 kts | 298° |
| 2026-04-30 21:25 | 26.27105 | -81.70088 | 25936 ft | 455 kts | 298° |
| 2026-04-30 21:25 | 26.28579 | -81.73209 | 26096 ft | 457 kts | 298° |
| 2026-04-30 21:26 | 26.31530 | -81.79462 | 26418 ft | 460 kts | 297° |
| 2026-04-30 21:26 | 26.33037 | -81.82660 | 26596 ft | 461 kts | 297° |
| 2026-04-30 21:27 | 26.35991 | -81.88932 | 27067 ft | 460 kts | 297° |
| 2026-04-30 21:27 | 26.37481 | -81.92099 | 27251 ft | 460 kts | 297° |
| 2026-04-30 21:27 | 26.38968 | -81.95263 | 27449 ft | 461 kts | 297° |
| 2026-04-30 21:28 | 26.41857 | -82.01416 | 27940 ft | 459 kts | 297° |
| 2026-04-30 21:28 | 26.43334 | -82.04565 | 28202 ft | 458 kts | 297° |
| 2026-04-30 21:28 | 26.46285 | -82.10863 | 28723 ft | 458 kts | 297° |
| 2026-04-30 21:29 | 26.47759 | -82.14013 | 29011 ft | 457 kts | 297° |
| 2026-04-30 21:29 | 26.52161 | -82.23431 | 29870 ft | 455 kts | 296° |
| 2026-04-30 21:30 | 26.55063 | -82.29651 | 30420 ft | 453 kts | 296° |
| 2026-04-30 21:31 | 26.59405 | -82.38974 | 31310 ft | 449 kts | 297° |
| 2026-04-30 21:31 | 26.62273 | -82.45146 | 31956 ft | 446 kts | 297° |
| 2026-04-30 21:32 | 26.65123 | -82.51286 | 32556 ft | 444 kts | 297° |
| 2026-04-30 21:32 | 26.66544 | -82.54350 | 32855 ft | 443 kts | 297° |
| 2026-04-30 21:32 | 26.67958 | -82.57401 | 33185 ft | 442 kts | 297° |
| 2026-04-30 21:32 | 26.69362 | -82.60434 | 33594 ft | 438 kts | 297° |
| 2026-04-30 21:33 | 26.70760 | -82.63455 | 33948 ft | 436 kts | 297° |
| 2026-04-30 21:33 | 26.73539 | -82.69468 | 34429 ft | 435 kts | 298° |
| 2026-04-30 21:33 | 26.74925 | -82.72469 | 34728 ft | 432 kts | 298° |
| 2026-04-30 21:34 | 26.76297 | -82.75445 | 35051 ft | 429 kts | 298° |
| 2026-04-30 21:34 | 26.79030 | -82.81373 | 35570 ft | 427 kts | 298° |
| 2026-04-30 21:34 | 26.80364 | -82.84272 | 35852 ft | 424 kts | 298° |
| 2026-04-30 21:35 | 26.83072 | -82.90158 | 35966 ft | 426 kts | 298° |
| 2026-04-30 21:35 | 26.85780 | -82.96052 | 35962 ft | 424 kts | 298° |
| 2026-04-30 21:36 | 26.88404 | -83.01774 | 35947 ft | 422 kts | 298° |
| 2026-04-30 21:37 | 26.93298 | -83.12463 | 35954 ft | 421 kts | 298° |
| 2026-04-30 21:37 | 26.95967 | -83.18303 | 35954 ft | 420 kts | 298° |
| 2026-04-30 21:38 | 26.98625 | -83.24128 | 35951 ft | 420 kts | 298° |
| 2026-04-30 21:38 | 27.01286 | -83.29968 | 35954 ft | 421 kts | 298° |
| 2026-04-30 21:39 | 27.03947 | -83.35815 | 35949 ft | 420 kts | 298° |
| 2026-04-30 21:39 | 27.06596 | -83.41644 | 35953 ft | 419 kts | 298° |
| 2026-04-30 21:40 | 27.09240 | -83.47471 | 35953 ft | 419 kts | 298° |
| 2026-04-30 21:40 | 27.11866 | -83.53265 | 35954 ft | 419 kts | 298° |
| 2026-04-30 21:41 | 27.14502 | -83.59090 | 35951 ft | 418 kts | 297° |
| 2026-04-30 21:41 | 27.17151 | -83.64951 | 35952 ft | 418 kts | 297° |
| 2026-04-30 21:42 | 27.19763 | -83.70740 | 35954 ft | 418 kts | 297° |
| 2026-04-30 21:42 | 27.22384 | -83.76555 | 35954 ft | 418 kts | 297° |
| 2026-04-30 21:43 | 27.25004 | -83.82378 | 35951 ft | 418 kts | 297° |
| 2026-04-30 21:43 | 27.27626 | -83.88210 | 35951 ft | 418 kts | 297° |
| 2026-04-30 21:44 | 27.30237 | -83.94029 | 35952 ft | 418 kts | 297° |
| 2026-04-30 21:44 | 27.32853 | -83.99866 | 35951 ft | 418 kts | 297° |
| 2026-04-30 21:45 | 27.35396 | -84.05547 | 35971 ft | 417 kts | 297° |
| 2026-04-30 21:45 | 27.37999 | -84.11371 | 35955 ft | 417 kts | 297° |
| 2026-04-30 21:46 | 27.40602 | -84.17204 | 35946 ft | 416 kts | 297° |
| 2026-04-30 21:46 | 27.43192 | -84.23015 | 35948 ft | 415 kts | 297° |
| 2026-04-30 21:47 | 27.45778 | -84.28826 | 35951 ft | 415 kts | 297° |
| 2026-04-30 21:47 | 27.48362 | -84.34639 | 35949 ft | 415 kts | 296° |
| 2026-04-30 21:48 | 27.50938 | -84.40445 | 35948 ft | 415 kts | 296° |
| 2026-04-30 21:48 | 27.53501 | -84.46227 | 35948 ft | 415 kts | 296° |
| 2026-04-30 21:49 | 27.56077 | -84.52049 | 35949 ft | 416 kts | 296° |
| 2026-04-30 21:49 | 27.58657 | -84.57885 | 35948 ft | 416 kts | 296° |
| 2026-04-30 21:50 | 27.61233 | -84.63723 | 35948 ft | 416 kts | 296° |
| 2026-04-30 21:50 | 27.63807 | -84.69564 | 35951 ft | 416 kts | 296° |
| 2026-04-30 21:51 | 27.66376 | -84.75402 | 35945 ft | 416 kts | 296° |
| 2026-04-30 21:51 | 27.68946 | -84.81249 | 35945 ft | 416 kts | 296° |
| 2026-04-30 21:52 | 27.71509 | -84.87091 | 35948 ft | 416 kts | 296° |
| 2026-04-30 21:52 | 27.74061 | -84.92914 | 35948 ft | 416 kts | 296° |
| 2026-04-30 21:53 | 27.76620 | -84.98764 | 35948 ft | 416 kts | 296° |
| 2026-04-30 21:53 | 27.79123 | -85.04492 | 35948 ft | 416 kts | 296° |
| 2026-04-30 21:54 | 27.81674 | -85.10339 | 35948 ft | 415 kts | 295° |
| 2026-04-30 21:54 | 27.84223 | -85.16191 | 35943 ft | 415 kts | 295° |
| 2026-04-30 21:55 | 27.86772 | -85.22048 | 35945 ft | 415 kts | 295° |
| 2026-04-30 21:55 | 27.89155 | -85.27971 | 35944 ft | 414 kts | 290° |
| 2026-04-30 21:56 | 27.91020 | -85.34127 | 35941 ft | 414 kts | 288° |
| 2026-04-30 21:56 | 27.92835 | -85.40289 | 35946 ft | 414 kts | 288° |
| 2026-04-30 21:57 | 27.94664 | -85.46418 | 35943 ft | 414 kts | 289° |
| 2026-04-30 21:57 | 27.96521 | -85.52587 | 35942 ft | 413 kts | 289° |
| 2026-04-30 21:58 | 27.98378 | -85.58743 | 35943 ft | 413 kts | 289° |
| 2026-04-30 21:58 | 28.00230 | -85.64894 | 35965 ft | 413 kts | 289° |
| 2026-04-30 21:59 | 28.02082 | -85.71053 | 35948 ft | 413 kts | 288° |
| 2026-04-30 22:00 | 28.04850 | -85.80284 | 35937 ft | 413 kts | 288° |
| 2026-04-30 22:00 | 28.07609 | -85.89511 | 35941 ft | 412 kts | 288° |
| 2026-04-30 22:01 | 28.09443 | -85.95660 | 35939 ft | 412 kts | 288° |
| 2026-04-30 22:01 | 28.11241 | -86.01696 | 35938 ft | 412 kts | 288° |
| 2026-04-30 22:02 | 28.13069 | -86.07844 | 35940 ft | 412 kts | 288° |
| 2026-04-30 22:02 | 28.14898 | -86.14009 | 35936 ft | 412 kts | 288° |
| 2026-04-30 22:03 | 28.16722 | -86.20168 | 35941 ft | 412 kts | 288° |
| 2026-04-30 22:03 | 28.18530 | -86.26286 | 35939 ft | 412 kts | 288° |
| 2026-04-30 22:04 | 28.20345 | -86.32437 | 35941 ft | 412 kts | 288° |
| 2026-04-30 22:05 | 28.23068 | -86.41685 | 35941 ft | 412 kts | 288° |
| 2026-04-30 22:05 | 28.24872 | -86.47828 | 35941 ft | 412 kts | 288° |
| 2026-04-30 22:06 | 28.26680 | -86.53995 | 35940 ft | 412 kts | 288° |
| 2026-04-30 22:06 | 28.29382 | -86.63235 | 35940 ft | 412 kts | 287° |
| 2026-04-30 22:07 | 28.31184 | -86.69412 | 35934 ft | 412 kts | 287° |
| 2026-04-30 22:07 | 28.32982 | -86.75558 | 35939 ft | 412 kts | 287° |
| 2026-04-30 22:08 | 28.34790 | -86.81726 | 35942 ft | 411 kts | 287° |
| 2026-04-30 22:08 | 28.36581 | -86.87850 | 35938 ft | 411 kts | 287° |
| 2026-04-30 22:09 | 28.38371 | -86.93985 | 35937 ft | 411 kts | 287° |
| 2026-04-30 22:09 | 28.40145 | -87.00078 | 35940 ft | 411 kts | 287° |
| 2026-04-30 22:10 | 28.41901 | -87.06120 | 35940 ft | 411 kts | 287° |
| 2026-04-30 22:10 | 28.43692 | -87.12297 | 35940 ft | 411 kts | 287° |
| 2026-04-30 22:11 | 28.46368 | -87.21544 | 35940 ft | 411 kts | 287° |
| 2026-04-30 22:12 | 28.48152 | -87.27725 | 35937 ft | 411 kts | 287° |
| 2026-04-30 22:12 | 28.49930 | -87.33894 | 35935 ft | 411 kts | 286° |
| 2026-04-30 22:13 | 28.51704 | -87.40064 | 35940 ft | 411 kts | 286° |
| 2026-04-30 22:13 | 28.53477 | -87.46239 | 35940 ft | 411 kts | 286° |
| 2026-04-30 22:14 | 28.55235 | -87.52375 | 35940 ft | 411 kts | 286° |
| 2026-04-30 22:14 | 28.56999 | -87.58548 | 35940 ft | 411 kts | 286° |
| 2026-04-30 22:15 | 28.58763 | -87.64728 | 35940 ft | 411 kts | 286° |
| 2026-04-30 22:15 | 28.60523 | -87.70907 | 35940 ft | 411 kts | 286° |
| 2026-04-30 22:16 | 28.62277 | -87.77075 | 35936 ft | 409 kts | 287° |
| 2026-04-30 22:17 | 28.65758 | -87.89356 | 35940 ft | 407 kts | 286° |
| 2026-04-30 22:17 | 28.68348 | -87.98527 | 35936 ft | 407 kts | 286° |
| 2026-04-30 22:18 | 28.70905 | -88.07600 | 35938 ft | 407 kts | 286° |
| 2026-04-30 22:19 | 28.73450 | -88.16674 | 35932 ft | 407 kts | 285° |
| 2026-04-30 22:20 | 28.76021 | -88.25879 | 35934 ft | 406 kts | 285° |
| 2026-04-30 22:20 | 28.78587 | -88.35088 | 35934 ft | 406 kts | 285° |
| 2026-04-30 22:21 | 28.80294 | -88.41230 | 35934 ft | 406 kts | 285° |
| 2026-04-30 22:21 | 28.81998 | -88.47372 | 35927 ft | 406 kts | 285° |
| 2026-04-30 22:22 | 28.83689 | -88.53482 | 35939 ft | 407 kts | 285° |
| 2026-04-30 22:22 | 28.85392 | -88.59644 | 35934 ft | 408 kts | 285° |
| 2026-04-30 22:23 | 28.87095 | -88.65814 | 35932 ft | 408 kts | 286° |
| 2026-04-30 22:23 | 28.89587 | -88.71668 | 35935 ft | 414 kts | 298° |
| 2026-04-30 22:24 | 28.93219 | -88.76840 | 35934 ft | 420 kts | 306° |
| 2026-04-30 22:24 | 28.97061 | -88.81871 | 35941 ft | 420 kts | 306° |
| 2026-04-30 22:25 | 29.00872 | -88.86891 | 35933 ft | 419 kts | 306° |
| 2026-04-30 22:25 | 29.04671 | -88.91931 | 35929 ft | 418 kts | 306° |
| 2026-04-30 22:26 | 29.10333 | -88.99474 | 35930 ft | 417 kts | 306° |
| 2026-04-30 22:27 | 29.14029 | -89.04407 | 35652 ft | 418 kts | 306° |
| 2026-04-30 22:27 | 29.15904 | -89.06911 | 35415 ft | 416 kts | 306° |
| 2026-04-30 22:27 | 29.19653 | -89.11924 | 34952 ft | 419 kts | 305° |
| 2026-04-30 22:28 | 29.23457 | -89.17018 | 34482 ft | 423 kts | 305° |
| 2026-04-30 22:28 | 29.25392 | -89.19614 | 33879 ft | 432 kts | 305° |
| 2026-04-30 22:29 | 29.31209 | -89.27414 | 31784 ft | 428 kts | 306° |
| 2026-04-30 22:29 | 29.33148 | -89.30018 | 31133 ft | 431 kts | 306° |
| 2026-04-30 22:30 | 29.40974 | -89.40548 | 28343 ft | 436 kts | 306° |
| 2026-04-30 22:31 | 29.46829 | -89.48438 | 26266 ft | 427 kts | 307° |
| 2026-04-30 22:32 | 29.52476 | -89.56064 | 24336 ft | 412 kts | 307° |
| 2026-04-30 22:32 | 29.56154 | -89.61039 | 23044 ft | 404 kts | 307° |
| 2026-04-30 22:33 | 29.61548 | -89.68353 | 20925 ft | 395 kts | 307° |
| 2026-04-30 22:33 | 29.65066 | -89.73127 | 19591 ft | 389 kts | 307° |
| 2026-04-30 22:34 | 29.69669 | -89.79384 | 17850 ft | 381 kts | 307° |
| 2026-04-30 22:35 | 29.73070 | -89.84014 | 16429 ft | 376 kts | 307° |
| 2026-04-30 22:36 | 29.79702 | -89.93055 | 13762 ft | 355 kts | 306° |
| 2026-04-30 22:36 | 29.81271 | -89.95196 | 13048 ft | 346 kts | 306° |
| 2026-04-30 22:37 | 29.85278 | -90.01480 | 11028 ft | 321 kts | 294° |
| 2026-04-30 22:37 | 29.86066 | -90.03860 | 10376 ft | 315 kts | 287° |
| 2026-04-30 22:37 | 29.87399 | -90.08602 | 9007 ft | 308 kts | 287° |
| 2026-04-30 22:38 | 29.88699 | -90.13247 | 7643 ft | 302 kts | 287° |
| 2026-04-30 22:38 | 29.89984 | -90.17806 | 6294 ft | 297 kts | 287° |
| 2026-04-30 22:39 | 29.90623 | -90.20066 | 5620 ft | 296 kts | 287° |
| 2026-04-30 22:39 | 29.92423 | -90.26426 | 5034 ft | 270 kts | 287° |
| 2026-04-30 22:40 | 29.94114 | -90.32416 | 4974 ft | 243 kts | 286° |
| 2026-04-30 22:41 | 29.95619 | -90.37770 | 5006 ft | 232 kts | 285° |
| 2026-04-30 22:41 | 29.96627 | -90.41311 | 4907 ft | 238 kts | 286° |
| 2026-04-30 22:42 | 29.98700 | -90.48725 | 4036 ft | 233 kts | 286° |
| 2026-04-30 22:43 | 29.99689 | -90.52237 | 4046 ft | 227 kts | 287° |
| 2026-04-30 22:43 | 30.00673 | -90.55770 | 4047 ft | 235 kts | 287° |
| 2026-04-30 22:44 | 30.01677 | -90.59347 | 4038 ft | 234 kts | 287° |
| 2026-04-30 22:45 | 30.03740 | -90.66399 | 4036 ft | 235 kts | 301° |
| 2026-04-30 22:45 | 30.06449 | -90.67931 | 4030 ft | 219 kts | 8° |
| 2026-04-30 22:46 | 30.08654 | -90.66031 | 4037 ft | 203 kts | 67° |
| 2026-04-30 22:47 | 30.07732 | -90.59916 | 4031 ft | 189 kts | 112° |
| 2026-04-30 22:47 | 30.06804 | -90.57045 | 4067 ft | 195 kts | 111° |
| 2026-04-30 22:48 | 30.05976 | -90.54206 | 4019 ft | 176 kts | 111° |
| 2026-04-30 22:49 | 30.04928 | -90.50164 | 4009 ft | 175 kts | 107° |
| 2026-04-30 22:49 | 30.03944 | -90.45942 | 3046 ft | 195 kts | 106° |
| 2026-04-30 22:50 | 30.02489 | -90.39923 | 2054 ft | 180 kts | 105° |
| 2026-04-30 22:51 | 30.01867 | -90.37334 | 1607 ft | 164 kts | 104° |
| 2026-04-30 22:51 | 30.01351 | -90.34819 | 1054 ft | 148 kts | 105° |
| 2026-04-30 22:52 | 30.01099 | -90.33782 | 883 ft | 143 kts | 107° |
| 2026-04-30 22:52 | 30.00474 | -90.31644 | 631 ft | 143 kts | 105° |
| 2026-04-30 22:53 | 29.99961 | -90.29404 | 232 ft | 146 kts | 105° |
| 2026-04-30 22:53 | 29.99466 | -90.27349 | 2 ft | 125 kts | 105° |
| 2026-04-30 22:53 | 29.99289 | -90.26622 | 10 ft | 78 kts | 105° |
| 2026-04-30 22:54 | 29.99161 | -90.26089 | 6 ft | 0 kts | 105° |
| 2026-04-30 22:55 | 29.99076 | -90.25714 | 6 ft | 24 kts | 88° |
| 2026-04-30 22:55 | 29.99158 | -90.25627 | 4 ft | 0 kts | 15° |
| 2026-04-30 22:56 | 29.99214 | -90.25556 | 5 ft | 8 kts | 48° |
| 2026-04-30 22:57 | 29.99370 | -90.25511 | 5 ft | 15 kts | 12° |
| 2026-04-30 22:57 | 29.99442 | -90.25493 | 5 ft | 0 kts | 42° |
| 2026-04-30 22:59 | 29.99454 | -90.25429 | 6 ft | 0 kts | 89° |